createdAt,value
2023-02-15T08:51:35.646Z,101442.09
2023-02-15T08:53:07.407Z,101451.59
2023-02-15T08:54:39.106Z,101445.13
2023-02-15T08:56:11.581Z,101446.50
2023-02-15T08:57:46.481Z,101444.34
2023-02-15T08:59:21.041Z,101437.69
2023-02-15T09:00:52.986Z,101438.97
2023-02-15T09:02:24.778Z,101431.47
2023-02-15T09:04:02.329Z,101435.44
2023-02-15T09:05:34.221Z,101426.13
2023-02-15T09:07:05.937Z,101429.16
2023-02-15T09:08:38.158Z,101425.19
2023-02-15T09:10:10.762Z,101426.56
2023-02-15T09:11:45.396Z,101424.34
2023-02-15T09:13:17.119Z,101429.28
2023-02-15T09:14:48.811Z,101425.38
2023-02-15T09:16:21.885Z,101414.47
2023-02-15T09:17:54.177Z,101422.19
2023-02-15T09:19:26.225Z,101418.34
2023-02-15T09:20:58.054Z,101418.13
2023-02-15T09:22:31.192Z,101416.00
2023-02-15T09:24:05.762Z,101406.09
2023-02-15T09:25:37.493Z,101413.63
2023-02-15T09:27:09.181Z,101404.63
2023-02-15T09:28:41.752Z,101420.34
2023-02-15T09:30:14.009Z,101416.56
2023-02-15T09:31:48.239Z,101409.31
2023-02-15T09:33:19.979Z,101408.06
2023-02-15T09:34:51.721Z,101411.31
2023-02-15T09:36:25.837Z,101412.00
2023-02-15T09:37:57.530Z,101409.00
2023-02-15T09:39:29.249Z,101408.75
2023-02-15T09:41:16.839Z,101418.34
2023-02-15T09:43:06.578Z,101417.25
2023-02-15T09:44:48.835Z,101419.53
2023-02-15T09:46:46.711Z,101414.00
2023-02-15T09:48:37.128Z,101412.91
2023-02-15T09:50:29.973Z,101418.03
2023-02-15T09:52:10.878Z,101411.59
2023-02-15T09:53:54.365Z,101410.41
2023-02-15T09:55:47.246Z,101413.81
2023-02-15T09:57:34.178Z,101412.47
2023-02-15T09:59:26.395Z,101414.09
2023-02-15T10:01:23.266Z,101390.78
2023-02-15T10:03:25.468Z,101391.34
2023-02-15T10:05:16.341Z,101396.47
2023-02-15T10:07:13.701Z,101393.50
2023-02-15T10:09:00.391Z,101387.81
2023-02-15T10:10:37.565Z,101385.66
2023-02-15T10:12:25.257Z,101382.69
2023-02-15T10:14:28.858Z,101383.31
2023-02-15T10:16:21.233Z,101376.81
2023-02-15T10:18:12.045Z,101373.09
2023-02-15T10:19:58.831Z,101380.72
2023-02-15T10:21:41.995Z,101382.22
2023-02-15T10:23:22.517Z,101389.81
2023-02-15T10:25:18.306Z,101375.28
2023-02-15T10:26:50.871Z,101380.28
2023-02-15T10:28:39.584Z,101377.38
2023-02-15T10:30:16.850Z,101369.75
2023-02-15T10:31:58.242Z,101364.16
2023-02-15T10:33:39.172Z,101360.56
2023-02-15T10:35:26.401Z,101356.53
2023-02-15T10:37:21.504Z,101353.47
2023-02-15T10:39:31.775Z,101353.06
2023-02-15T10:41:14.888Z,101337.25
2023-02-15T10:43:13.005Z,101342.19
2023-02-15T10:45:05.258Z,101339.25
2023-02-15T10:46:49.175Z,101334.22
2023-02-15T10:48:44.603Z,101340.22
2023-02-15T10:50:27.585Z,101340.94
2023-02-15T10:52:08.155Z,101337.75
2023-02-15T10:54:00.859Z,101334.88
2023-02-15T10:55:38.814Z,101328.34
2023-02-15T10:57:51.093Z,101329.09
2023-02-15T11:00:03.121Z,101321.03
2023-02-15T11:01:56.955Z,101318.91
2023-02-15T11:03:41.884Z,101319.00
2023-02-15T11:05:28.635Z,101318.47
2023-02-15T11:07:06.285Z,101330.13
2023-02-15T11:08:46.082Z,101327.25
2023-02-15T11:10:35.084Z,101308.19
2023-02-15T11:12:13.741Z,101309.34
2023-02-15T11:13:51.257Z,101311.28
2023-02-15T11:15:35.556Z,101311.81
2023-02-15T11:17:12.450Z,101308.34
2023-02-15T11:19:16.681Z,101304.78
2023-02-15T11:21:02.741Z,101303.06
2023-02-15T11:22:35.480Z,101303.22
2023-02-15T11:24:15.355Z,101303.22
2023-02-15T11:25:56.081Z,101298.00
2023-02-15T11:27:36.001Z,101301.06
2023-02-15T11:29:17.201Z,101301.69
2023-02-15T11:30:54.376Z,101304.69
2023-02-15T11:32:30.107Z,101302.75
2023-02-15T11:34:12.170Z,101286.25
2023-02-15T11:35:56.934Z,101290.47
2023-02-15T11:37:36.983Z,101285.50
2023-02-15T11:39:15.342Z,101285.13
2023-02-15T11:40:59.971Z,101292.06
2023-02-15T11:42:34.128Z,101290.59
2023-02-15T11:44:16.401Z,101286.00
2023-02-15T11:45:48.221Z,101284.59
2023-02-15T11:47:19.956Z,101285.97
2023-02-15T11:48:51.813Z,101285.59
2023-02-15T11:50:26.564Z,101278.19
2023-02-15T11:52:00.943Z,101271.75
2023-02-15T11:53:37.137Z,101274.44
2023-02-15T11:55:15.538Z,101267.31
2023-02-15T11:56:47.382Z,101262.59
2023-02-15T11:58:41.319Z,101265.78
2023-02-15T12:00:37.150Z,101267.13
2023-02-15T12:02:21.832Z,101262.13
2023-02-15T12:03:58.810Z,101255.56
2023-02-15T12:05:31.400Z,101254.59
2023-02-15T12:07:16.289Z,101261.25
2023-02-15T12:08:56.362Z,101258.84
2023-02-15T12:10:39.093Z,101268.00
2023-02-15T12:12:29.293Z,101259.41
2023-02-15T12:14:04.821Z,101258.34
2023-02-15T12:15:37.589Z,101264.56
2023-02-15T12:17:14.468Z,101252.47
2023-02-15T12:18:48.907Z,101254.59
2023-02-15T12:20:28.887Z,101254.31
2023-02-15T12:22:03.319Z,101249.81
2023-02-15T12:23:42.443Z,101247.56
2023-02-15T12:25:30.461Z,101245.28
2023-02-15T12:27:06.180Z,101245.44
2023-02-15T12:28:43.077Z,101238.53
2023-02-15T12:30:24.422Z,101235.16
2023-02-15T12:31:56.829Z,101228.84
2023-02-15T12:33:34.173Z,101236.03
2023-02-15T12:35:15.101Z,101238.72
2023-02-15T12:36:55.484Z,101228.91
2023-02-15T12:38:29.626Z,101226.69
2023-02-15T12:40:18.902Z,101222.16
2023-02-15T12:41:57.836Z,101222.56
2023-02-15T12:43:32.337Z,101224.97
2023-02-15T12:45:21.562Z,101219.88
2023-02-15T12:47:05.001Z,101224.00
2023-02-15T12:48:40.696Z,101217.34
2023-02-15T12:50:23.916Z,101217.44
2023-02-15T12:52:01.625Z,101210.91
2023-02-15T12:53:36.954Z,101214.09
2023-02-15T12:55:18.496Z,101207.84
2023-02-15T12:56:50.261Z,101210.22
2023-02-15T12:58:27.089Z,101207.44
2023-02-15T13:00:02.370Z,101215.59
2023-02-15T13:01:34.682Z,101217.25
2023-02-15T13:03:18.922Z,101217.56
2023-02-15T13:04:51.506Z,101215.31
2023-02-15T13:06:23.349Z,101221.13
2023-02-15T13:07:58.844Z,101213.13
2023-02-15T13:09:33.368Z,101212.44
2023-02-15T13:11:11.465Z,101211.25
2023-02-15T13:12:48.286Z,101215.97
2023-02-15T13:14:31.585Z,101211.72
2023-02-15T13:16:08.442Z,101214.72
2023-02-15T13:17:40.471Z,101215.41
2023-02-15T13:19:30.946Z,101222.09
2023-02-15T13:21:12.190Z,101224.41
2023-02-15T13:22:48.265Z,101213.22
2023-02-15T13:24:33.939Z,101221.78
2023-02-15T13:26:12.377Z,101213.13
2023-02-15T13:27:46.135Z,101216.78
2023-02-15T13:29:36.912Z,101208.59
2023-02-15T13:31:19.545Z,101215.13
2023-02-15T13:32:57.455Z,101218.19
2023-02-15T13:34:39.974Z,101224.22
2023-02-15T13:36:24.174Z,101220.44
2023-02-15T13:38:07.658Z,101207.19
2023-02-15T13:39:46.002Z,101211.31
2023-02-15T13:41:27.560Z,101214.69
2023-02-15T13:43:27.299Z,101218.75
2023-02-15T13:45:24.538Z,101226.94
2023-02-15T13:47:20.444Z,101215.56
2023-02-15T13:49:17.766Z,101211.69
2023-02-15T13:51:07.925Z,101213.59
2023-02-15T13:53:12.368Z,101214.56
2023-02-15T13:54:53.202Z,101222.63
2023-02-15T13:56:40.132Z,101208.22
2023-02-15T13:58:45.028Z,101204.69
2023-02-15T14:00:26.390Z,101209.94
2023-02-15T14:02:23.153Z,101205.53
2023-02-15T14:04:09.737Z,101193.81
2023-02-15T14:06:29.649Z,101186.56
2023-02-15T14:08:30.951Z,101195.06
2023-02-15T14:10:27.325Z,101204.31
2023-02-15T14:12:17.558Z,101194.44
2023-02-15T14:14:01.175Z,101193.09
2023-02-15T14:15:48.307Z,101183.63
2023-02-15T14:17:33.766Z,101185.09
2023-02-15T14:19:20.059Z,101184.31
2023-02-15T14:21:04.798Z,101177.78
2023-02-15T14:22:42.713Z,101188.19
2023-02-15T14:24:33.474Z,101189.34
2023-02-15T14:26:25.917Z,101178.59
2023-02-15T14:28:10.007Z,101174.78
2023-02-15T14:29:51.965Z,101179.00
2023-02-15T14:31:34.687Z,101177.56
2023-02-15T14:33:16.572Z,101187.25
2023-02-15T14:34:57.982Z,101177.84
2023-02-15T14:36:31.363Z,101188.78
2023-02-15T14:38:27.346Z,101179.56
2023-02-15T14:40:25.399Z,101189.41
2023-02-15T14:42:08.105Z,101189.41
2023-02-15T14:43:45.996Z,101186.59
2023-02-15T14:45:34.190Z,101190.16
2023-02-15T14:47:36.959Z,101179.97
2023-02-15T14:49:23.398Z,101181.69
2023-02-15T14:50:55.164Z,101178.53
2023-02-15T14:52:26.962Z,101177.38
2023-02-15T14:53:58.726Z,101178.22
2023-02-15T14:55:37.680Z,101174.97
2023-02-15T14:57:09.514Z,101182.84
2023-02-15T14:58:57.378Z,101176.28
2023-02-15T15:00:39.176Z,101183.31
2023-02-15T15:02:16.601Z,101182.63
2023-02-15T15:03:54.441Z,101184.53
2023-02-15T15:05:47.281Z,101186.91
2023-02-15T15:07:23.341Z,101188.66
2023-02-15T15:09:28.251Z,101183.72
2023-02-15T15:11:42.038Z,101184.88
2023-02-15T15:13:32.931Z,101187.56
2023-02-15T15:15:06.360Z,101182.97
2023-02-15T15:16:38.259Z,101189.16
2023-02-15T15:18:11.610Z,101178.78
2023-02-15T15:19:51.975Z,101189.88
2023-02-15T15:21:49.285Z,101191.44
2023-02-15T15:23:21.003Z,101183.22
2023-02-15T15:24:55.083Z,101185.91
2023-02-15T15:26:30.122Z,101182.78
2023-02-15T15:28:02.026Z,101181.00
2023-02-15T15:29:41.124Z,101174.03
2023-02-15T15:31:25.111Z,101177.94
2023-02-15T15:32:59.592Z,101182.63
2023-02-15T15:34:55.139Z,101182.44
2023-02-15T15:36:36.007Z,101179.31
2023-02-15T15:39:01.405Z,101171.06
2023-02-15T15:41:02.155Z,101172.84
2023-02-15T15:42:51.542Z,101174.94
2023-02-15T15:44:50.997Z,101172.28
2023-02-15T15:46:25.719Z,101171.47
2023-02-15T15:48:27.782Z,101161.59
2023-02-15T15:50:00.620Z,101171.25
2023-02-15T15:51:34.294Z,101169.97
2023-02-15T15:53:07.339Z,101170.19
2023-02-15T15:54:41.855Z,101171.81
2023-02-15T15:56:20.149Z,101177.06
2023-02-15T15:57:56.609Z,101177.53
2023-02-15T15:59:33.536Z,101173.91
2023-02-15T16:01:09.756Z,101169.97
2023-02-15T16:02:52.292Z,101161.50
2023-02-15T16:04:31.123Z,101171.75
2023-02-15T16:06:03.391Z,101168.59
2023-02-15T16:07:35.475Z,101181.38
2023-02-15T16:09:19.368Z,101172.09
2023-02-15T16:10:51.119Z,101171.56
2023-02-15T16:12:23.954Z,101171.16
2023-02-15T16:13:56.680Z,101165.53
2023-02-15T16:15:45.556Z,101165.19
2023-02-15T16:17:32.840Z,101160.47
2023-02-15T16:19:04.638Z,101160.13
2023-02-15T16:20:38.014Z,101163.13
2023-02-15T16:22:16.912Z,101161.91
2023-02-15T16:24:21.583Z,101176.34
2023-02-15T16:26:07.043Z,101182.09
2023-02-15T16:27:44.703Z,101176.22
2023-02-15T16:29:18.841Z,101175.09
2023-02-15T16:31:17.063Z,101171.16
2023-02-15T16:32:49.499Z,101175.69
2023-02-15T16:34:21.274Z,101169.66
2023-02-15T16:35:59.124Z,101180.03
2023-02-15T16:37:35.420Z,101179.28
2023-02-15T16:39:17.975Z,101182.16
2023-02-15T16:40:56.637Z,101181.50
2023-02-15T16:42:28.453Z,101174.72
2023-02-15T16:44:17.335Z,101179.56
2023-02-15T16:45:49.416Z,101182.28
2023-02-15T16:47:27.338Z,101168.38
2023-02-15T16:49:03.259Z,101165.84
2023-02-15T16:50:38.258Z,101167.09
2023-02-15T16:52:16.887Z,101170.81
2023-02-15T16:53:49.763Z,101173.59
2023-02-15T16:55:24.072Z,101165.75
2023-02-15T16:56:58.878Z,101172.19
2023-02-15T16:58:46.882Z,101167.25
2023-02-15T17:00:26.043Z,101169.28
2023-02-15T17:01:58.512Z,101162.44
2023-02-15T17:03:30.647Z,101165.09
2023-02-15T17:05:11.669Z,101165.38
2023-02-15T17:06:59.167Z,101169.81
2023-02-15T17:08:34.193Z,101175.06
2023-02-15T17:10:27.336Z,101172.81
2023-02-15T17:12:00.861Z,101166.53
2023-02-15T17:13:32.888Z,101171.19
2023-02-15T17:15:04.765Z,101174.81
2023-02-15T17:16:38.238Z,101183.09
2023-02-15T17:18:19.438Z,101183.38
2023-02-15T17:19:54.482Z,101189.69
2023-02-15T17:21:32.817Z,101182.66
2023-02-15T17:23:05.224Z,101190.81
2023-02-15T17:24:43.072Z,101182.06
2023-02-15T17:26:29.879Z,101182.16
2023-02-15T17:28:02.414Z,101185.84
2023-02-15T17:29:38.647Z,101178.81
2023-02-15T17:31:10.633Z,101180.78
2023-02-15T17:32:55.254Z,101180.06
2023-02-15T17:35:00.219Z,101174.94
2023-02-15T17:36:32.698Z,101168.63
2023-02-15T17:38:24.710Z,101174.19
2023-02-15T17:39:58.958Z,101166.28
2023-02-15T17:41:38.326Z,101173.50
2023-02-15T17:43:10.309Z,101167.44
2023-02-15T17:44:42.032Z,101174.63
2023-02-15T17:46:14.376Z,101173.75
2023-02-15T17:47:49.343Z,101172.13
2023-02-15T17:49:27.951Z,101178.34
2023-02-15T17:51:02.786Z,101172.34
2023-02-15T17:52:37.661Z,101180.34
2023-02-15T17:54:29.156Z,101177.81
2023-02-15T17:56:10.539Z,101177.84
2023-02-15T17:57:42.662Z,101176.25
2023-02-15T17:59:15.322Z,101178.00
2023-02-15T18:01:10.382Z,101179.81
2023-02-15T18:03:01.864Z,101181.72
2023-02-15T18:04:54.948Z,101180.94
2023-02-15T18:06:45.707Z,101175.63
2023-02-15T18:08:45.481Z,101167.91
2023-02-15T18:10:38.119Z,101172.34
2023-02-15T18:12:23.814Z,101161.03
2023-02-15T18:14:01.363Z,101161.19
2023-02-15T18:15:33.235Z,101163.00
2023-02-15T18:17:05.842Z,101160.41
2023-02-15T18:18:39.135Z,101154.31
2023-02-15T18:20:36.920Z,101159.78
2023-02-15T18:22:13.065Z,101162.28
2023-02-15T18:23:45.171Z,101158.63
2023-02-15T18:25:20.153Z,101157.94
2023-02-15T18:26:53.803Z,101154.47
2023-02-15T18:28:28.973Z,101155.31
2023-02-15T18:30:01.344Z,101157.97
2023-02-15T18:31:33.234Z,101156.44
2023-02-15T18:33:05.423Z,101164.25
2023-02-15T18:34:42.179Z,101162.41
2023-02-15T18:36:20.184Z,101151.88
2023-02-15T18:37:53.785Z,101162.66
2023-02-15T18:39:31.616Z,101159.03
2023-02-15T18:41:04.113Z,101156.56
2023-02-15T18:42:36.765Z,101159.28
2023-02-15T18:44:12.283Z,101165.41
2023-02-15T18:45:44.351Z,101160.06
2023-02-15T18:47:16.431Z,101151.28
2023-02-15T18:48:48.461Z,101158.44
2023-02-15T18:50:21.953Z,101163.63
2023-02-15T18:51:53.985Z,101162.81
2023-02-15T18:53:26.040Z,101158.50
2023-02-15T18:55:01.679Z,101163.69
2023-02-15T18:56:33.834Z,101162.13
2023-02-15T18:58:05.774Z,101172.66
2023-02-15T18:59:38.140Z,101172.72
2023-02-15T19:01:21.126Z,101166.59
2023-02-15T19:02:54.062Z,101174.50
2023-02-15T19:04:26.147Z,101165.69
2023-02-15T19:05:58.193Z,101163.94
2023-02-15T19:07:32.608Z,101157.88
2023-02-15T19:09:05.756Z,101168.50
2023-02-15T19:10:38.075Z,101158.66
2023-02-15T19:12:13.363Z,101148.28
2023-02-15T19:13:48.873Z,101161.41
2023-02-15T19:15:23.173Z,101165.84
2023-02-15T19:16:56.663Z,101164.91
2023-02-15T19:18:28.380Z,101156.22
2023-02-15T19:20:00.401Z,101167.75
2023-02-15T19:21:32.826Z,101158.94
2023-02-15T19:23:07.330Z,101158.09
2023-02-15T19:24:42.069Z,101161.63
2023-02-15T19:26:13.808Z,101159.94
2023-02-15T19:27:46.857Z,101160.75
2023-02-15T19:29:26.174Z,101152.84
2023-02-15T19:30:58.032Z,101148.41
2023-02-15T19:32:31.268Z,101151.09
2023-02-15T19:34:13.096Z,101151.19
2023-02-15T19:35:47.814Z,101147.72
2023-02-15T19:37:33.527Z,101148.63
2023-02-15T19:39:05.571Z,101144.31
2023-02-15T19:40:37.347Z,101143.53
2023-02-15T19:42:15.319Z,101133.78
2023-02-15T19:43:53.406Z,101134.81
2023-02-15T19:45:27.769Z,101130.34
2023-02-15T19:46:59.487Z,101132.13
2023-02-15T19:48:31.183Z,101128.56
2023-02-15T19:50:04.050Z,101131.28
2023-02-15T19:51:36.179Z,101123.34
2023-02-15T19:53:20.493Z,101127.78
2023-02-15T19:54:54.860Z,101121.63
2023-02-15T19:56:27.872Z,101121.59
2023-02-15T19:58:01.913Z,101127.78
2023-02-15T19:59:36.541Z,101122.50
2023-02-15T20:01:09.316Z,101119.84
2023-02-15T20:02:41.319Z,101115.59
2023-02-15T20:04:14.130Z,101119.09
2023-02-15T20:05:47.097Z,101109.38
2023-02-15T20:07:28.571Z,101112.13
2023-02-15T20:09:00.517Z,101108.66
2023-02-15T20:10:32.526Z,101105.06
2023-02-15T20:12:04.509Z,101103.28
2023-02-15T20:13:36.489Z,101108.56
2023-02-15T20:15:23.195Z,101108.66
2023-02-15T20:16:54.921Z,101114.72
2023-02-15T20:18:26.815Z,101106.78
2023-02-15T20:19:58.522Z,101098.97
2023-02-15T20:21:30.382Z,101095.19
2023-02-15T20:23:02.253Z,101097.81
2023-02-15T20:24:33.988Z,101102.25
2023-02-15T20:26:18.533Z,101098.00
2023-02-15T20:27:50.684Z,101100.63
2023-02-15T20:29:22.626Z,101101.53
2023-02-15T20:30:54.724Z,101103.28
2023-02-15T20:32:27.005Z,101104.06
2023-02-15T20:33:59.042Z,101096.06
2023-02-15T20:35:30.921Z,101092.59
2023-02-15T20:37:03.578Z,101099.63
2023-02-15T20:38:35.576Z,101094.41
2023-02-15T20:40:16.037Z,101100.69
2023-02-15T20:41:48.066Z,101100.63
2023-02-15T20:43:19.960Z,101100.69
2023-02-15T20:44:51.639Z,101101.56
2023-02-15T20:46:23.433Z,101096.41
2023-02-15T20:47:55.472Z,101099.06
2023-02-15T20:49:28.254Z,101100.88
2023-02-15T20:51:00.332Z,101092.09
2023-02-15T20:52:32.191Z,101097.25
2023-02-15T20:54:12.904Z,101085.00
2023-02-15T20:55:44.714Z,101095.53
2023-02-15T20:57:16.962Z,101094.69
2023-02-15T20:58:48.955Z,101091.22
2023-02-15T21:00:27.325Z,101095.47
2023-02-15T21:02:11.515Z,101089.25
2023-02-15T21:03:43.403Z,101090.03
2023-02-15T21:05:25.990Z,101083.09
2023-02-15T21:06:57.851Z,101088.38
2023-02-15T21:08:30.165Z,101093.66
2023-02-15T21:10:01.962Z,101093.63
2023-02-15T21:11:33.786Z,101088.44
2023-02-15T21:13:05.901Z,101084.03
2023-02-15T21:14:37.944Z,101086.66
2023-02-15T21:16:10.044Z,101083.94
2023-02-15T21:17:41.843Z,101087.56
2023-02-15T21:19:16.168Z,101082.22
2023-02-15T21:20:50.060Z,101085.84
2023-02-15T21:22:22.046Z,101085.84
2023-02-15T21:23:53.940Z,101081.50
2023-02-15T21:25:32.880Z,101079.69
2023-02-15T21:27:07.099Z,101085.78
2023-02-15T21:28:40.399Z,101084.00
2023-02-15T21:30:17.530Z,101084.06
2023-02-15T21:31:49.921Z,101085.00
2023-02-15T21:33:21.717Z,101076.28
2023-02-15T21:34:53.613Z,101071.84
2023-02-15T21:36:25.607Z,101076.41
2023-02-15T21:37:57.383Z,101063.91
2023-02-15T21:39:32.409Z,101072.75
2023-02-15T21:41:24.260Z,101075.41
2023-02-15T21:43:14.997Z,101082.44
2023-02-15T21:45:05.425Z,101094.94
2023-02-15T21:46:56.433Z,101092.13
2023-02-15T21:48:28.574Z,101087.81
2023-02-15T21:50:20.262Z,101078.97
2023-02-15T21:52:10.857Z,101080.78
2023-02-15T21:53:46.345Z,101073.81
2023-02-15T21:55:18.389Z,101077.28
2023-02-15T21:56:54.233Z,101074.56
2023-02-15T21:58:28.545Z,101075.50
2023-02-15T22:00:00.263Z,101071.97
2023-02-15T22:01:32.449Z,101060.50
2023-02-15T22:03:05.472Z,101069.41
2023-02-15T22:04:37.204Z,101065.94
2023-02-15T22:06:12.540Z,101072.06
2023-02-15T22:07:44.747Z,101070.31
2023-02-15T22:09:19.325Z,101066.81
2023-02-15T22:10:51.240Z,101067.69
2023-02-15T22:12:22.998Z,101067.59
2023-02-15T22:13:54.734Z,101070.31
2023-02-15T22:15:36.502Z,101071.13
2023-02-15T22:17:20.586Z,101075.63
2023-02-15T22:18:52.279Z,101074.69
2023-02-15T22:20:24.770Z,101074.69
2023-02-15T22:21:56.568Z,101069.47
2023-02-15T22:23:28.281Z,101068.53
2023-02-15T22:25:00.005Z,101071.16
2023-02-15T22:26:31.722Z,101069.38
2023-02-15T22:28:03.874Z,101074.75
2023-02-15T22:29:35.963Z,101067.75
2023-02-15T22:31:14.368Z,101076.63
2023-02-15T22:32:46.199Z,101066.75
2023-02-15T22:34:28.491Z,101069.47
2023-02-15T22:36:01.017Z,101061.47
2023-02-15T22:37:33.247Z,101069.38
2023-02-15T22:39:04.966Z,101067.69
2023-02-15T22:40:36.742Z,101065.97
2023-02-15T22:42:27.472Z,101070.47
2023-02-15T22:44:00.178Z,101060.66
2023-02-15T22:45:33.142Z,101059.88
2023-02-15T22:47:05.521Z,101059.94
2023-02-15T22:48:37.282Z,101067.88
2023-02-15T22:50:37.815Z,101067.13
2023-02-15T22:52:13.672Z,101068.81
2023-02-15T22:53:45.921Z,101071.53
2023-02-15T22:55:19.988Z,101071.63
2023-02-15T22:56:55.229Z,101067.22
2023-02-15T22:58:28.706Z,101075.22
2023-02-15T23:00:01.403Z,101074.13
2023-02-15T23:01:37.019Z,101075.16
2023-02-15T23:03:34.790Z,101066.47
2023-02-15T23:05:15.051Z,101068.13
2023-02-15T23:06:47.507Z,101068.13
2023-02-15T23:08:19.590Z,101069.81
2023-02-15T23:09:51.541Z,101075.97
2023-02-15T23:11:23.754Z,101068.00
2023-02-15T23:13:22.123Z,101071.63
2023-02-15T23:14:56.839Z,101063.69
2023-02-15T23:16:29.080Z,101083.03
2023-02-15T23:18:16.420Z,101081.25
2023-02-15T23:19:48.132Z,101084.78
2023-02-15T23:21:23.648Z,101086.56
2023-02-15T23:22:55.370Z,101087.44
2023-02-15T23:24:29.720Z,101087.47
2023-02-15T23:26:04.396Z,101086.50
2023-02-15T23:27:54.959Z,101075.00
2023-02-15T23:29:26.824Z,101085.69
2023-02-15T23:30:59.843Z,101077.72
2023-02-15T23:32:32.585Z,101081.41
2023-02-15T23:34:14.612Z,101080.50
2023-02-15T23:35:46.343Z,101071.78
2023-02-15T23:37:18.414Z,101076.03
2023-02-15T23:38:50.385Z,101070.75
2023-02-15T23:40:40.825Z,101061.91
2023-02-15T23:42:29.071Z,101067.22
2023-02-15T23:44:03.788Z,101075.91
2023-02-15T23:45:38.949Z,101079.59
2023-02-15T23:47:20.921Z,101070.00
2023-02-15T23:48:53.553Z,101080.47
2023-02-15T23:50:28.118Z,101084.88
2023-02-15T23:52:00.880Z,101078.75
2023-02-15T23:53:33.352Z,101094.56
2023-02-15T23:55:05.377Z,101105.97
2023-02-15T23:56:37.341Z,101101.56
2023-02-15T23:58:20.687Z,101101.56
2023-02-15T23:59:52.436Z,101112.22
